Westville, Illinois
Current Conditions -  °F | °C
As of 1:55 PM on Sunday 23 Nov 2014 (Local Time) from KDNV Reporting Station
Moderate Rain Moderate Rain  
Wind Chill: 51°   Ceiling: 300
Heat Index: 51°   Visibility: 2mi
Dew Point: 50°   Wind: 10mph
Humidity: 97%   Direction: 150°SSE
Pressure: 29.52"   Gusts: NA
Location:  40.04°N, 87.64°W
Report Text: KDNV 231955Z AUTO 15009KT 2SM RA OVC003 11/10 A2952 RMK AO2 T01050101
Loading
Personal Weather Stations






























Interactive Weather Map New forecast layout! Learn more

10-Day Weather Forecast

Advertisements
Track Severe Weather on mobile